createdAt,value
2019-02-06T00:01:19.690Z,1019.37
2019-02-06T00:02:19.661Z,1019.35
2019-02-06T00:03:19.641Z,1019.33
2019-02-06T00:04:19.640Z,1019.33
2019-02-06T00:05:19.616Z,1019.31
2019-02-06T00:06:19.601Z,1019.30
2019-02-06T00:07:19.588Z,1019.26
2019-02-06T00:08:19.580Z,1019.26
2019-02-06T00:09:19.563Z,1019.26
2019-02-06T00:10:19.553Z,1019.28
2019-02-06T00:11:19.543Z,1019.20
2019-02-06T00:12:19.529Z,1019.17
2019-02-06T00:13:19.556Z,1019.19
2019-02-06T00:14:19.501Z,1019.20
2019-02-06T00:15:19.497Z,1019.22
2019-02-06T00:16:19.479Z,1019.24
2019-02-06T00:17:19.501Z,1019.24
2019-02-06T00:18:19.454Z,1019.24
2019-02-06T00:19:19.439Z,1019.27
2019-02-06T00:20:19.440Z,1019.28
2019-02-06T00:21:20.653Z,1019.27
2019-02-06T00:22:19.403Z,1019.27
2019-02-06T00:23:19.396Z,1019.24
2019-02-06T00:24:19.382Z,1019.28
2019-02-06T00:25:19.364Z,1019.28
2019-02-06T00:26:19.355Z,1019.27
2019-02-06T00:27:19.335Z,1019.25
2019-02-06T00:28:19.325Z,1019.19
2019-02-06T00:29:19.322Z,1019.15
2019-02-06T00:30:19.310Z,1019.14
2019-02-06T00:31:19.293Z,1019.15
2019-02-06T00:32:19.283Z,1019.10
2019-02-06T00:33:19.274Z,1019.07
2019-02-06T00:34:19.255Z,1019.05
2019-02-06T00:35:25.732Z,1019.04
2019-02-06T00:36:19.235Z,1019.04
2019-02-06T00:37:19.217Z,1019.05
2019-02-06T00:38:19.217Z,1019.08
2019-02-06T00:39:19.195Z,1019.07
2019-02-06T00:40:19.182Z,1019.07
2019-02-06T00:41:19.173Z,1019.04
2019-02-06T00:42:19.150Z,1019.03
2019-02-06T00:43:19.146Z,1019.10
2019-02-06T00:44:19.128Z,1019.09
2019-02-06T00:45:19.117Z,1019.10
2019-02-06T00:46:19.104Z,1019.08
2019-02-06T00:47:19.093Z,1019.06
2019-02-06T00:48:19.084Z,1019.06
2019-02-06T00:49:19.072Z,1019.08
2019-02-06T00:50:19.051Z,1019.11
2019-02-06T00:51:19.037Z,1019.03
2019-02-06T00:52:19.032Z,1019.02
2019-02-06T00:53:19.016Z,1019.03
2019-02-06T00:54:19.008Z,1019.02
2019-02-06T00:55:18.990Z,1018.98
2019-02-06T00:56:18.975Z,1019.00
2019-02-06T00:57:18.965Z,1018.99
2019-02-06T00:58:18.949Z,1019.02
2019-02-06T00:59:18.940Z,1019.00
2019-02-06T01:00:18.930Z,1019.01
2019-02-06T01:01:18.916Z,1019.02
2019-02-06T01:02:18.896Z,1019.01
2019-02-06T01:03:18.884Z,1018.99
2019-02-06T01:04:18.876Z,1019.01
2019-02-06T01:05:18.865Z,1018.97
2019-02-06T01:06:18.857Z,1018.93
2019-02-06T01:07:18.840Z,1018.93
2019-02-06T01:08:18.829Z,1018.94
2019-02-06T01:09:18.818Z,1018.89
2019-02-06T01:10:18.801Z,1018.92
2019-02-06T01:11:18.786Z,1018.90
2019-02-06T01:12:18.771Z,1018.88
2019-02-06T01:13:18.771Z,1018.88
2019-02-06T01:14:18.750Z,1018.82
2019-02-06T01:15:18.743Z,1018.85
2019-02-06T01:16:18.722Z,1018.81
2019-02-06T01:17:18.708Z,1018.80
2019-02-06T01:18:18.695Z,1018.78
2019-02-06T01:19:18.686Z,1018.77
2019-02-06T01:20:18.668Z,1018.78
2019-02-06T01:21:18.663Z,1018.80
2019-02-06T01:22:18.649Z,1018.77
2019-02-06T01:23:18.635Z,1018.75
2019-02-06T01:24:18.617Z,1018.68
2019-02-06T01:25:18.611Z,1018.71
2019-02-06T01:26:18.615Z,1018.71
2019-02-06T01:27:18.585Z,1018.73
2019-02-06T01:28:18.573Z,1018.75
2019-02-06T01:29:18.557Z,1018.80
2019-02-06T01:30:18.553Z,1018.79
2019-02-06T01:31:18.530Z,1018.76
2019-02-06T01:32:18.519Z,1018.76
2019-02-06T01:33:18.507Z,1018.77
2019-02-06T01:34:18.497Z,1018.75
2019-02-06T01:35:18.486Z,1018.75
2019-02-06T01:36:18.471Z,1018.75
2019-02-06T01:37:18.457Z,1018.74
2019-02-06T01:38:18.440Z,1018.70
2019-02-06T01:39:18.430Z,1018.70
2019-02-06T01:40:18.433Z,1018.67
2019-02-06T01:41:18.408Z,1018.66
2019-02-06T01:42:18.389Z,1018.69
2019-02-06T01:43:18.379Z,1018.65
2019-02-06T01:44:18.365Z,1018.64
2019-02-06T01:45:18.354Z,1018.66
2019-02-06T01:46:18.347Z,1018.65
2019-02-06T01:47:18.328Z,1018.62
2019-02-06T01:48:18.315Z,1018.66
2019-02-06T01:49:18.304Z,1018.67
2019-02-06T01:50:18.291Z,1018.69
2019-02-06T01:51:18.275Z,1018.67
2019-02-06T01:52:18.264Z,1018.68
2019-02-06T01:53:18.352Z,1018.70
2019-02-06T01:54:18.237Z,1018.71
2019-02-06T01:55:18.231Z,1018.75
2019-02-06T01:56:18.214Z,1018.75
2019-02-06T01:57:18.198Z,1018.72
2019-02-06T01:58:18.192Z,1018.68
2019-02-06T01:59:18.173Z,1018.68
2019-02-06T02:00:18.197Z,1018.63
2019-02-06T02:01:18.148Z,1018.57
2019-02-06T02:02:18.136Z,1018.55
2019-02-06T02:03:18.126Z,1018.53
2019-02-06T02:04:18.107Z,1018.52
2019-02-06T02:05:18.096Z,1018.53
2019-02-06T02:06:18.083Z,1018.54
2019-02-06T02:07:18.071Z,1018.54
2019-02-06T02:08:18.056Z,1018.56
2019-02-06T02:09:18.043Z,1018.48
2019-02-06T02:10:18.032Z,1018.54
2019-02-06T02:11:18.018Z,1018.52
2019-02-06T02:12:18.007Z,1018.50
2019-02-06T02:13:17.995Z,1018.47
2019-02-06T02:14:17.984Z,1018.44
2019-02-06T02:15:17.970Z,1018.42
2019-02-06T02:16:17.979Z,1018.39
2019-02-06T02:17:17.945Z,1018.41
2019-02-06T02:18:17.931Z,1018.37
2019-02-06T02:19:17.918Z,1018.38
2019-02-06T02:20:18.003Z,1018.40
2019-02-06T02:21:17.888Z,1018.38
2019-02-06T02:22:17.876Z,1018.39
2019-02-06T02:23:17.862Z,1018.37
2019-02-06T02:24:17.854Z,1018.38
2019-02-06T02:25:17.841Z,1018.38
2019-02-06T02:26:17.827Z,1018.38
2019-02-06T02:27:17.812Z,1018.37
2019-02-06T02:28:17.797Z,1018.44
2019-02-06T02:29:17.789Z,1018.38
2019-02-06T02:30:17.773Z,1018.36
2019-02-06T02:31:17.760Z,1018.38
2019-02-06T02:32:17.755Z,1018.36
2019-02-06T02:33:17.825Z,1018.32
2019-02-06T02:34:17.726Z,1018.27
2019-02-06T02:35:17.706Z,1018.28
2019-02-06T02:36:17.699Z,1018.24
2019-02-06T02:37:17.682Z,1018.26
2019-02-06T02:38:17.778Z,1018.26
2019-02-06T02:39:17.657Z,1018.20
2019-02-06T02:40:17.644Z,1018.24
2019-02-06T02:41:17.637Z,1018.27
2019-02-06T02:42:17.623Z,1018.19
2019-02-06T02:43:17.611Z,1018.22
2019-02-06T02:44:17.596Z,1018.15
2019-02-06T02:45:17.588Z,1018.14
2019-02-06T02:46:17.570Z,1018.10
2019-02-06T02:47:17.561Z,1018.06
2019-02-06T02:48:17.542Z,1018.06
2019-02-06T02:49:17.528Z,1018.06
2019-02-06T02:50:17.519Z,1018.01
2019-02-06T02:51:17.499Z,1018.01
2019-02-06T02:52:17.495Z,1017.99
2019-02-06T02:53:17.485Z,1017.96
2019-02-06T02:54:17.469Z,1017.93
2019-02-06T02:55:17.458Z,1017.88
2019-02-06T02:56:17.439Z,1017.83
2019-02-06T02:57:17.426Z,1017.86
2019-02-06T02:58:17.414Z,1017.77
2019-02-06T02:59:17.510Z,1017.76
2019-02-06T03:00:17.382Z,1017.82
2019-02-06T03:01:17.379Z,1017.85
2019-02-06T03:02:17.366Z,1017.85
2019-02-06T03:03:17.352Z,1017.76
2019-02-06T03:04:17.342Z,1017.78
2019-02-06T03:05:17.324Z,1017.79
2019-02-06T03:06:27.682Z,1017.86
2019-02-06T03:07:17.306Z,1017.80
2019-02-06T03:08:17.288Z,1017.80
2019-02-06T03:09:17.392Z,1017.80
2019-02-06T03:10:17.260Z,1017.75
2019-02-06T03:11:17.248Z,1017.72
2019-02-06T03:12:17.232Z,1017.73
2019-02-06T03:13:17.228Z,1017.65
2019-02-06T03:14:17.204Z,1017.65
2019-02-06T03:15:17.197Z,1017.65
2019-02-06T03:16:17.183Z,1017.57
2019-02-06T03:17:17.172Z,1017.65
2019-02-06T03:18:17.153Z,1017.63
2019-02-06T03:19:17.144Z,1017.61
2019-02-06T03:20:17.200Z,1017.59
2019-02-06T03:21:17.118Z,1017.55
2019-02-06T03:22:17.157Z,1017.57
2019-02-06T03:23:17.092Z,1017.53
2019-02-06T03:24:17.096Z,1017.48
2019-02-06T03:25:17.153Z,1017.51
2019-02-06T03:26:17.084Z,1017.50
2019-02-06T03:27:17.113Z,1017.50
2019-02-06T03:28:17.032Z,1017.43
2019-02-06T03:29:17.025Z,1017.36
2019-02-06T03:30:17.008Z,1017.30
2019-02-06T03:31:17.014Z,1017.25
2019-02-06T03:32:16.976Z,1017.23
2019-02-06T03:33:16.971Z,1017.19
2019-02-06T03:34:16.952Z,1017.18
2019-02-06T03:35:16.943Z,1017.15
2019-02-06T03:36:16.929Z,1017.14
2019-02-06T03:37:16.913Z,1017.16
2019-02-06T03:38:16.906Z,1017.09
2019-02-06T03:39:16.889Z,1017.09
2019-02-06T03:40:16.878Z,1017.06
2019-02-06T03:41:16.867Z,1017.07
2019-02-06T03:42:16.850Z,1017.01
2019-02-06T03:43:16.833Z,1017.02
2019-02-06T03:44:16.824Z,1016.99
2019-02-06T03:45:16.810Z,1016.98
2019-02-06T03:46:16.798Z,1016.98
2019-02-06T03:47:16.786Z,1016.93
2019-02-06T03:48:16.775Z,1016.88
2019-02-06T03:49:16.760Z,1016.93
2019-02-06T03:50:16.753Z,1016.92
2019-02-06T03:51:16.743Z,1016.91
2019-02-06T03:52:16.721Z,1016.89
2019-02-06T03:53:16.714Z,1016.84
2019-02-06T03:54:16.697Z,1016.80
2019-02-06T03:55:16.732Z,1016.76
2019-02-06T03:56:16.700Z,1016.75
2019-02-06T03:57:16.657Z,1016.80
2019-02-06T03:58:16.648Z,1016.79
2019-02-06T03:59:16.634Z,1016.77
2019-02-06T04:00:16.633Z,1016.76
2019-02-06T04:01:16.618Z,1016.78
2019-02-06T04:02:16.598Z,1016.82
2019-02-06T04:03:16.593Z,1016.79
2019-02-06T04:04:16.564Z,1016.82
2019-02-06T04:05:16.553Z,1016.84
2019-02-06T04:06:16.563Z,1016.82
2019-02-06T04:07:16.532Z,1016.82
2019-02-06T04:08:16.517Z,1016.76
2019-02-06T04:09:16.508Z,1016.76
2019-02-06T04:10:16.483Z,1016.77
2019-02-06T04:11:16.485Z,1016.71
2019-02-06T04:12:16.471Z,1016.72
2019-02-06T04:13:16.450Z,1016.71
2019-02-06T04:14:16.440Z,1016.70
2019-02-06T04:15:16.417Z,1016.72
2019-02-06T04:16:16.409Z,1016.76
2019-02-06T04:17:16.400Z,1016.71
2019-02-06T04:18:16.394Z,1016.71
2019-02-06T04:19:16.377Z,1016.76
2019-02-06T04:20:16.361Z,1016.68
2019-02-06T04:21:16.348Z,1016.62
2019-02-06T04:22:16.333Z,1016.63
2019-02-06T04:23:16.323Z,1016.63
2019-02-06T04:24:16.311Z,1016.64
2019-02-06T04:25:16.294Z,1016.65
2019-02-06T04:26:16.424Z,1016.64
2019-02-06T04:27:16.273Z,1016.65
2019-02-06T04:28:16.264Z,1016.62
2019-02-06T04:29:16.248Z,1016.67
2019-02-06T04:30:16.231Z,1016.68
2019-02-06T04:31:16.217Z,1016.73
2019-02-06T04:32:16.213Z,1016.70
2019-02-06T04:33:16.193Z,1016.70
2019-02-06T04:34:16.182Z,1016.67
2019-02-06T04:35:16.172Z,1016.69
2019-02-06T04:36:16.156Z,1016.63
2019-02-06T04:37:16.148Z,1016.65
2019-02-06T04:38:16.127Z,1016.59
2019-02-06T04:39:16.118Z,1016.59
2019-02-06T04:40:22.809Z,1016.51
2019-02-06T04:41:16.088Z,1016.52
2019-02-06T04:42:16.090Z,1016.49
2019-02-06T04:43:16.069Z,1016.52
2019-02-06T04:44:16.163Z,1016.51
2019-02-06T04:45:16.037Z,1016.54
2019-02-06T04:46:16.027Z,1016.51
2019-02-06T04:47:16.014Z,1016.47
2019-02-06T04:48:15.999Z,1016.52
2019-02-06T04:49:16.003Z,1016.51
2019-02-06T04:50:15.972Z,1016.52
2019-02-06T04:51:15.960Z,1016.47
2019-02-06T04:52:15.952Z,1016.47
2019-02-06T04:53:15.936Z,1016.47
2019-02-06T04:54:15.917Z,1016.48
2019-02-06T04:55:15.911Z,1016.45
2019-02-06T04:56:15.895Z,1016.45
2019-02-06T04:57:15.882Z,1016.45
2019-02-06T04:58:15.881Z,1016.44
2019-02-06T04:59:15.853Z,1016.42
2019-02-06T05:00:15.850Z,1016.43
2019-02-06T05:01:15.831Z,1016.40
2019-02-06T05:02:15.819Z,1016.39
2019-02-06T05:03:15.806Z,1016.35
2019-02-06T05:04:15.806Z,1016.42
2019-02-06T05:05:15.782Z,1016.39
2019-02-06T05:06:15.768Z,1016.42
2019-02-06T05:07:19.113Z,1016.38
2019-02-06T05:08:15.741Z,1016.39
2019-02-06T05:09:15.729Z,1016.37
2019-02-06T05:10:15.715Z,1016.37
2019-02-06T05:11:15.704Z,1016.36
2019-02-06T05:12:15.686Z,1016.36
2019-02-06T05:13:15.677Z,1016.35
2019-02-06T05:14:15.661Z,1016.37
2019-02-06T05:15:15.656Z,1016.33
2019-02-06T05:16:15.637Z,1016.42
2019-02-06T05:17:15.624Z,1016.37
2019-02-06T05:18:15.612Z,1016.38
2019-02-06T05:19:15.605Z,1016.37
2019-02-06T05:20:15.587Z,1016.36
2019-02-06T05:21:15.583Z,1016.32
2019-02-06T05:22:15.560Z,1016.36
2019-02-06T05:23:15.548Z,1016.30
2019-02-06T05:24:15.539Z,1016.30
2019-02-06T05:25:15.521Z,1016.26
2019-02-06T05:26:15.510Z,1016.30
2019-02-06T05:27:15.492Z,1016.31
2019-02-06T05:28:18.018Z,1016.28
2019-02-06T05:29:15.483Z,1016.33
2019-02-06T05:30:15.457Z,1016.23
2019-02-06T05:31:15.442Z,1016.22
2019-02-06T05:32:15.451Z,1016.24
2019-02-06T05:33:15.422Z,1016.25
2019-02-06T05:34:15.412Z,1016.18
2019-02-06T05:35:15.391Z,1016.17
2019-02-06T05:36:15.392Z,1016.18
2019-02-06T05:37:15.368Z,1016.12
2019-02-06T05:38:15.350Z,1016.07
2019-02-06T05:39:15.342Z,1016.10
2019-02-06T05:40:15.328Z,1016.13
2019-02-06T05:41:15.319Z,1016.09
2019-02-06T05:42:15.300Z,1016.08
2019-02-06T05:43:15.283Z,1016.14
2019-02-06T05:44:15.273Z,1016.12
2019-02-06T05:45:15.279Z,1016.12
2019-02-06T05:46:15.256Z,1016.10
2019-02-06T05:47:15.236Z,1016.06
2019-02-06T05:48:15.225Z,1015.98
2019-02-06T05:49:15.206Z,1016.03
2019-02-06T05:50:15.222Z,1016.08
2019-02-06T05:51:15.187Z,1015.97
2019-02-06T05:52:15.171Z,1015.97
2019-02-06T05:53:15.163Z,1016.02
2019-02-06T05:54:15.147Z,1015.96
2019-02-06T05:55:15.139Z,1015.93
2019-02-06T05:56:15.114Z,1015.87
2019-02-06T05:57:15.121Z,1015.90
2019-02-06T05:58:15.097Z,1015.95
2019-02-06T05:59:15.080Z,1015.90
2019-02-06T06:00:15.068Z,1015.88
2019-02-06T06:01:15.057Z,1015.89
2019-02-06T06:02:15.051Z,1015.81
2019-02-06T06:03:15.026Z,1015.81
2019-02-06T06:04:15.010Z,1015.82
2019-02-06T06:05:15.006Z,1015.81
2019-02-06T06:06:14.988Z,1015.81
2019-02-06T06:07:14.988Z,1015.81
2019-02-06T06:08:14.964Z,1015.85
2019-02-06T06:09:14.950Z,1015.83
2019-02-06T06:10:14.940Z,1015.84
2019-02-06T06:11:14.918Z,1015.90
2019-02-06T06:12:14.912Z,1015.92
2019-02-06T06:13:18.301Z,1015.89
2019-02-06T06:14:14.878Z,1015.87
2019-02-06T06:15:14.878Z,1015.90
2019-02-06T06:16:14.878Z,1015.84
2019-02-06T06:17:14.849Z,1015.86
2019-02-06T06:18:14.836Z,1015.90
2019-02-06T06:19:14.822Z,1015.88
2019-02-06T06:20:14.806Z,1015.88
2019-02-06T06:21:14.805Z,1015.92
2019-02-06T06:22:14.786Z,1015.83
2019-02-06T06:23:14.768Z,1015.87
2019-02-06T06:24:14.761Z,1015.84
2019-02-06T06:25:14.751Z,1015.80
2019-02-06T06:26:14.731Z,1015.80
2019-02-06T06:27:14.718Z,1015.82
2019-02-06T06:28:14.745Z,1015.79
2019-02-06T06:29:14.693Z,1015.79
2019-02-06T06:30:14.675Z,1015.77
2019-02-06T06:31:14.716Z,1015.77
2019-02-06T06:32:14.674Z,1015.75
2019-02-06T06:33:14.643Z,1015.73
2019-02-06T06:34:14.631Z,1015.69
2019-02-06T06:35:14.616Z,1015.69
2019-02-06T06:36:14.602Z,1015.67
2019-02-06T06:37:14.592Z,1015.70
2019-02-06T06:38:14.575Z,1015.69
2019-02-06T06:39:14.565Z,1015.66
2019-02-06T06:40:14.553Z,1015.66
2019-02-06T06:41:14.539Z,1015.70
2019-02-06T06:42:14.530Z,1015.74
2019-02-06T06:43:16.217Z,1015.75
2019-02-06T06:44:14.498Z,1015.80
2019-02-06T06:45:14.488Z,1015.77
2019-02-06T06:46:14.476Z,1015.81
2019-02-06T06:47:14.464Z,1015.82
2019-02-06T06:48:14.453Z,1015.81
2019-02-06T06:49:14.443Z,1015.82
2019-02-06T06:50:14.426Z,1015.80
2019-02-06T06:51:14.411Z,1015.80
2019-02-06T06:52:14.399Z,1015.83
2019-02-06T06:53:14.391Z,1015.82
2019-02-06T06:54:14.377Z,1015.79
2019-02-06T06:55:14.364Z,1015.80
2019-02-06T06:56:14.424Z,1015.75
2019-02-06T06:57:14.337Z,1015.78
2019-02-06T06:58:14.328Z,1015.79
2019-02-06T06:59:14.310Z,1015.80
2019-02-06T07:00:14.293Z,1015.73
2019-02-06T07:01:14.286Z,1015.77
2019-02-06T07:02:14.269Z,1015.75
2019-02-06T07:03:14.265Z,1015.69
2019-02-06T07:04:14.246Z,1015.67
2019-02-06T07:05:14.235Z,1015.70
2019-02-06T07:06:14.225Z,1015.70
2019-02-06T07:07:14.208Z,1015.74
2019-02-06T07:08:14.205Z,1015.74
2019-02-06T07:09:14.187Z,1015.73
2019-02-06T07:10:14.178Z,1015.76
2019-02-06T07:11:14.162Z,1015.73
2019-02-06T07:12:14.147Z,1015.73
2019-02-06T07:13:14.136Z,1015.77
2019-02-06T07:14:14.116Z,1015.74
2019-02-06T07:15:14.109Z,1015.74
2019-02-06T07:16:14.097Z,1015.74
2019-02-06T07:17:14.080Z,1015.72
2019-02-06T07:18:14.072Z,1015.70
2019-02-06T07:19:14.075Z,1015.68
2019-02-06T07:20:14.046Z,1015.69
2019-02-06T07:21:14.032Z,1015.67
2019-02-06T07:22:14.026Z,1015.69
2019-02-06T07:23:14.005Z,1015.70
2019-02-06T07:24:14.002Z,1015.72
2019-02-06T07:25:13.982Z,1015.70
2019-02-06T07:26:13.969Z,1015.75
2019-02-06T07:27:13.961Z,1015.72
2019-02-06T07:28:13.942Z,1015.65
2019-02-06T07:29:13.937Z,1015.66
2019-02-06T07:30:13.939Z,1015.70
2019-02-06T07:31:13.908Z,1015.67
2019-02-06T07:32:13.896Z,1015.71
2019-02-06T07:33:13.878Z,1015.68
2019-02-06T07:34:13.873Z,1015.70
2019-02-06T07:35:13.871Z,1015.70
2019-02-06T07:36:13.842Z,1015.71
2019-02-06T07:37:13.833Z,1015.72
2019-02-06T07:38:24.021Z,1015.71
2019-02-06T07:39:13.809Z,1015.69
2019-02-06T07:40:13.799Z,1015.68
2019-02-06T07:41:13.780Z,1015.67
2019-02-06T07:42:13.785Z,1015.63
2019-02-06T07:43:13.757Z,1015.64
2019-02-06T07:44:13.745Z,1015.60
2019-02-06T07:45:13.736Z,1015.57
2019-02-06T07:46:13.732Z,1015.57
2019-02-06T07:47:13.720Z,1015.54
2019-02-06T07:48:13.698Z,1015.48
2019-02-06T07:49:13.684Z,1015.52
2019-02-06T07:50:13.673Z,1015.48
2019-02-06T07:51:13.670Z,1015.48
2019-02-06T07:52:13.646Z,1015.48
2019-02-06T07:53:13.638Z,1015.46
2019-02-06T07:54:13.625Z,1015.46
2019-02-06T07:55:13.611Z,1015.43
2019-02-06T07:56:13.619Z,1015.40
2019-02-06T07:57:13.587Z,1015.41
2019-02-06T07:58:13.580Z,1015.47
2019-02-06T07:59:13.563Z,1015.47
2019-02-06T08:00:13.549Z,1015.44
2019-02-06T08:01:13.535Z,1015.40
2019-02-06T08:02:13.532Z,1015.42
2019-02-06T08:03:13.513Z,1015.40
2019-02-06T08:04:13.503Z,1015.39
2019-02-06T08:05:13.488Z,1015.38
2019-02-06T08:06:13.478Z,1015.36
2019-02-06T08:07:13.472Z,1015.42
2019-02-06T08:08:13.452Z,1015.46
2019-02-06T08:09:13.439Z,1015.36
2019-02-06T08:10:13.427Z,1015.36
2019-02-06T08:11:13.413Z,1015.41
2019-02-06T08:12:13.415Z,1015.40
2019-02-06T08:13:13.420Z,1015.36
2019-02-06T08:14:13.385Z,1015.39
2019-02-06T08:15:13.366Z,1015.35
2019-02-06T08:16:13.351Z,1015.38
2019-02-06T08:17:13.340Z,1015.39
2019-02-06T08:18:13.353Z,1015.39
2019-02-06T08:19:13.319Z,1015.41
2019-02-06T08:20:13.307Z,1015.40
2019-02-06T08:21:13.293Z,1015.39
2019-02-06T08:22:13.278Z,1015.36
2019-02-06T08:23:13.271Z,1015.35
2019-02-06T08:24:13.254Z,1015.39
2019-02-06T08:25:13.268Z,1015.40
2019-02-06T08:26:13.232Z,1015.39
2019-02-06T08:27:13.221Z,1015.39
2019-02-06T08:28:13.207Z,1015.38
2019-02-06T08:29:13.199Z,1015.39
2019-02-06T08:30:13.184Z,1015.41
2019-02-06T08:31:13.176Z,1015.49
2019-02-06T08:32:13.780Z,1015.43
2019-02-06T08:33:13.150Z,1015.49
2019-02-06T08:34:13.176Z,1015.50
2019-02-06T08:35:13.143Z,1015.51
2019-02-06T08:36:13.115Z,1015.61
2019-02-06T08:37:13.096Z,1015.62
2019-02-06T08:38:13.082Z,1015.64
2019-02-06T08:39:13.074Z,1015.64
2019-02-06T08:40:13.065Z,1015.62
2019-02-06T08:41:13.053Z,1015.65
2019-02-06T08:42:13.041Z,1015.70
2019-02-06T08:43:13.028Z,1015.73
2019-02-06T08:44:13.018Z,1015.69
2019-02-06T08:45:13.018Z,1015.70
2019-02-06T08:46:12.987Z,1015.71
2019-02-06T08:47:12.998Z,1015.75
2019-02-06T08:48:12.972Z,1015.72
2019-02-06T08:49:12.956Z,1015.74
2019-02-06T08:50:12.946Z,1015.70
2019-02-06T08:51:12.942Z,1015.73
2019-02-06T08:52:12.923Z,1015.75
2019-02-06T08:53:12.911Z,1015.71
2019-02-06T08:54:12.905Z,1015.78
2019-02-06T08:55:12.886Z,1015.73
2019-02-06T08:56:12.881Z,1015.77
2019-02-06T08:57:12.866Z,1015.80
2019-02-06T08:58:12.853Z,1015.81
2019-02-06T08:59:12.843Z,1015.72
2019-02-06T09:00:12.830Z,1015.69
2019-02-06T09:01:12.821Z,1015.69
2019-02-06T09:02:12.805Z,1015.67
2019-02-06T09:03:12.800Z,1015.75
2019-02-06T09:04:12.788Z,1015.72
2019-02-06T09:05:12.771Z,1015.67
2019-02-06T09:06:12.766Z,1015.69
2019-02-06T09:07:12.753Z,1015.73
2019-02-06T09:08:12.744Z,1015.75
2019-02-06T09:09:12.735Z,1015.72
2019-02-06T09:10:13.444Z,1015.71
2019-02-06T09:11:12.706Z,1015.65
2019-02-06T09:12:12.694Z,1015.71
2019-02-06T09:13:12.694Z,1015.70
2019-02-06T09:14:12.735Z,1015.72
2019-02-06T09:15:12.668Z,1015.74
2019-02-06T09:16:12.647Z,1015.74
2019-02-06T09:17:12.633Z,1015.67
2019-02-06T09:18:12.623Z,1015.68
2019-02-06T09:19:12.614Z,1015.70
2019-02-06T09:20:12.608Z,1015.71
2019-02-06T09:21:12.588Z,1015.71
2019-02-06T09:22:12.583Z,1015.74
2019-02-06T09:23:12.570Z,1015.75
2019-02-06T09:24:12.556Z,1015.78
2019-02-06T09:25:12.555Z,1015.75
2019-02-06T09:26:12.539Z,1015.74
2019-02-06T09:27:12.521Z,1015.74
2019-02-06T09:28:12.511Z,1015.73
2019-02-06T09:29:12.504Z,1015.74
2019-02-06T09:30:12.492Z,1015.75
2019-02-06T09:31:12.481Z,1015.76
2019-02-06T09:32:12.472Z,1015.75
2019-02-06T09:33:12.461Z,1015.70
2019-02-06T09:34:12.451Z,1015.70
2019-02-06T09:35:12.436Z,1015.71
2019-02-06T09:36:12.427Z,1015.73
2019-02-06T09:37:12.414Z,1015.72
2019-02-06T09:38:12.410Z,1015.71
2019-02-06T09:39:12.409Z,1015.68
2019-02-06T09:40:12.382Z,1015.63
2019-02-06T09:41:12.376Z,1015.69
2019-02-06T09:42:12.382Z,1015.67
2019-02-06T09:43:12.350Z,1015.67
2019-02-06T09:44:12.347Z,1015.68
2019-02-06T09:45:12.333Z,1015.70
2019-02-06T09:46:12.320Z,1015.68
2019-02-06T09:47:12.311Z,1015.70
2019-02-06T09:48:12.307Z,1015.71
2019-02-06T09:49:15.039Z,1015.67
2019-02-06T09:50:12.279Z,1015.64
2019-02-06T09:51:12.276Z,1015.67
2019-02-06T09:52:12.256Z,1015.64
2019-02-06T09:53:12.272Z,1015.66
2019-02-06T09:54:12.237Z,1015.64
2019-02-06T09:55:12.224Z,1015.65
2019-02-06T09:56:12.211Z,1015.65
2019-02-06T09:57:12.209Z,1015.62
2019-02-06T09:58:12.195Z,1015.63
2019-02-06T09:59:12.185Z,1015.65
2019-02-06T10:00:12.174Z,1015.66
2019-02-06T10:01:12.165Z,1015.62
2019-02-06T10:02:12.152Z,1015.69
2019-02-06T10:03:12.141Z,1015.64
2019-02-06T10:04:12.131Z,1015.64
2019-02-06T10:05:12.217Z,1015.62
2019-02-06T10:06:12.117Z,1015.62
2019-02-06T10:07:12.105Z,1015.62
2019-02-06T10:08:12.093Z,1015.57
2019-02-06T10:09:22.584Z,1015.59
2019-02-06T10:10:12.076Z,1015.57
2019-02-06T10:11:17.257Z,1015.53
2019-02-06T10:12:16.322Z,1015.54
2019-02-06T10:13:12.047Z,1015.57
2019-02-06T10:14:12.064Z,1015.53
2019-02-06T10:15:12.022Z,1015.53
2019-02-06T10:16:12.007Z,1015.52
2019-02-06T10:17:11.998Z,1015.51
2019-02-06T10:18:11.981Z,1015.52
2019-02-06T10:19:11.979Z,1015.55
2019-02-06T10:20:11.963Z,1015.56
2019-02-06T10:21:11.955Z,1015.55
2019-02-06T10:22:11.940Z,1015.54
2019-02-06T10:23:11.935Z,1015.54
2019-02-06T10:24:11.918Z,1015.46
2019-02-06T10:25:11.907Z,1015.55
2019-02-06T10:26:11.911Z,1015.51
2019-02-06T10:27:11.891Z,1015.54
2019-02-06T10:28:11.882Z,1015.57
2019-02-06T10:29:11.869Z,1015.55
2019-02-06T10:30:11.866Z,1015.59
2019-02-06T10:31:11.848Z,1015.56
2019-02-06T10:32:11.839Z,1015.61
2019-02-06T10:33:11.826Z,1015.56
2019-02-06T10:34:11.823Z,1015.61
2019-02-06T10:35:11.807Z,1015.55
2019-02-06T10:36:11.812Z,1015.50
2019-02-06T10:37:11.786Z,1015.56
2019-02-06T10:38:11.770Z,1015.55
2019-02-06T10:39:11.766Z,1015.55
2019-02-06T10:40:11.753Z,1015.50
2019-02-06T10:41:11.738Z,1015.51
2019-02-06T10:42:11.755Z,1015.48
2019-02-06T10:43:11.718Z,1015.49
2019-02-06T10:44:11.710Z,1015.49
2019-02-06T10:45:11.699Z,1015.46
2019-02-06T10:46:11.678Z,1015.47
2019-02-06T10:47:11.676Z,1015.42
2019-02-06T10:48:11.666Z,1015.45
2019-02-06T10:49:11.661Z,1015.42
2019-02-06T10:50:11.660Z,1015.46
2019-02-06T10:51:11.627Z,1015.48
2019-02-06T10:52:11.626Z,1015.47
2019-02-06T10:53:11.616Z,1015.44
2019-02-06T10:54:14.508Z,1015.43
2019-02-06T10:55:11.587Z,1015.44
2019-02-06T10:56:11.576Z,1015.45
2019-02-06T10:57:11.562Z,1015.39
2019-02-06T10:58:11.554Z,1015.39
2019-02-06T10:59:11.579Z,1015.38
2019-02-06T11:00:11.532Z,1015.37
2019-02-06T11:01:11.521Z,1015.36
2019-02-06T11:02:11.511Z,1015.34
2019-02-06T11:03:11.509Z,1015.32
2019-02-06T11:04:11.493Z,1015.33
2019-02-06T11:05:11.486Z,1015.33
2019-02-06T11:06:11.467Z,1015.31
2019-02-06T11:07:11.460Z,1015.28
2019-02-06T11:08:11.447Z,1015.32
2019-02-06T11:09:11.439Z,1015.30
2019-02-06T11:10:11.423Z,1015.28
2019-02-06T11:11:11.418Z,1015.25
2019-02-06T11:12:11.407Z,1015.24
2019-02-06T11:13:11.389Z,1015.22
2019-02-06T11:14:11.377Z,1015.24
2019-02-06T11:15:11.373Z,1015.25
2019-02-06T11:16:11.359Z,1015.23
2019-02-06T11:17:11.352Z,1015.26
2019-02-06T11:18:11.342Z,1015.23
2019-02-06T11:19:11.334Z,1015.15
2019-02-06T11:20:11.323Z,1015.21
2019-02-06T11:21:11.312Z,1015.20
2019-02-06T11:22:11.299Z,1015.17
2019-02-06T11:23:11.301Z,1015.14
2019-02-06T11:24:11.276Z,1015.09
2019-02-06T11:25:11.265Z,1015.11
2019-02-06T11:26:11.264Z,1015.11
2019-02-06T11:27:11.841Z,1015.08
2019-02-06T11:28:11.234Z,1015.10
2019-02-06T11:29:11.238Z,1015.14
2019-02-06T11:30:11.224Z,1015.14
2019-02-06T11:31:11.201Z,1015.11
2019-02-06T11:32:11.193Z,1015.12
2019-02-06T11:33:11.193Z,1015.17
2019-02-06T11:34:11.168Z,1015.08
2019-02-06T11:35:11.172Z,1015.15
2019-02-06T11:36:11.148Z,1015.11
2019-02-06T11:37:11.136Z,1015.06
2019-02-06T11:38:11.130Z,1015.10
2019-02-06T11:39:11.123Z,1015.09
2019-02-06T11:40:11.110Z,1015.08
2019-02-06T11:41:11.114Z,1015.10
2019-02-06T11:42:11.085Z,1015.03
2019-02-06T11:43:11.074Z,1015.04
2019-02-06T11:44:11.060Z,1015.00
2019-02-06T11:45:11.052Z,1014.99
2019-02-06T11:46:11.048Z,1014.96
2019-02-06T11:47:11.034Z,1014.96
2019-02-06T11:48:11.026Z,1014.95
2019-02-06T11:49:11.011Z,1014.93
2019-02-06T11:50:11.003Z,1014.93
2019-02-06T11:51:10.991Z,1014.94
2019-02-06T11:52:10.981Z,1014.86
2019-02-06T11:53:10.971Z,1014.87
2019-02-06T11:54:10.962Z,1014.88
2019-02-06T11:55:10.951Z,1014.86
2019-02-06T11:56:10.938Z,1014.84
2019-02-06T11:57:10.927Z,1014.82
2019-02-06T11:58:10.925Z,1014.86
2019-02-06T11:59:10.910Z,1014.89
2019-02-06T12:00:10.901Z,1014.86
2019-02-06T12:01:10.893Z,1014.81
2019-02-06T12:02:10.884Z,1014.77
2019-02-06T12:03:10.864Z,1014.83
2019-02-06T12:04:10.865Z,1014.86
2019-02-06T12:05:10.856Z,1014.81
2019-02-06T12:06:10.839Z,1014.82